METAR Data
IDs: Format: Raw Decoded Include TAF

Data at: 2056 UTC 23 Oct 2021

EFTU 232050Z AUTO 31004KT 9999 FEW041 M02/M03 Q1019